sensor_id;sensor_type;location;lat;lon;timestamp;temperature;humidity
56298;DHT22;42208;6.376;-10.782;2022-09-13T00:00:10;26.40;99.90
56298;DHT22;42208;6.376;-10.782;2022-09-13T00:02:38;26.40;99.90
56298;DHT22;42208;6.376;-10.782;2022-09-13T00:05:07;26.40;99.90
56298;DHT22;42208;6.376;-10.782;2022-09-13T00:07:35;26.40;99.90
56298;DHT22;42208;6.376;-10.782;2022-09-13T00:10:04;26.30;99.90
56298;DHT22;42208;6.376;-10.782;2022-09-13T00:12:32;26.40;99.90
56298;DHT22;42208;6.376;-10.782;2022-09-13T00:15:01;26.40;99.90
56298;DHT22;42208;6.376;-10.782;2022-09-13T00:17:29;26.40;99.90
56298;DHT22;42208;6.376;-10.782;2022-09-13T00:19:59;26.40;99.90
56298;DHT22;42208;6.376;-10.782;2022-09-13T00:22:27;26.30;99.90
56298;DHT22;42208;6.376;-10.782;2022-09-13T00:24:55;26.40;99.90
56298;DHT22;42208;6.376;-10.782;2022-09-13T00:27:24;26.40;99.90
56298;DHT22;42208;6.376;-10.782;2022-09-13T00:29:52;26.30;99.90
56298;DHT22;42208;6.376;-10.782;2022-09-13T00:32:20;26.30;99.90
56298;DHT22;42208;6.376;-10.782;2022-09-13T00:34:48;26.40;99.90
56298;DHT22;42208;6.376;-10.782;2022-09-13T00:37:16;26.40;99.90
56298;DHT22;42208;6.376;-10.782;2022-09-13T00:39:45;26.30;99.90
56298;DHT22;42208;6.376;-10.782;2022-09-13T00:42:16;26.30;99.90
56298;DHT22;42208;6.376;-10.782;2022-09-13T00:44:58;26.30;99.90
56298;DHT22;42208;6.376;-10.782;2022-09-13T00:50:20;26.30;99.90
56298;DHT22;42208;6.376;-10.782;2022-09-13T00:52:58;26.30;99.90
56298;DHT22;42208;6.376;-10.782;2022-09-13T00:58:41;26.30;99.90
56298;DHT22;42208;6.376;-10.782;2022-09-13T01:01:10;26.30;99.90
56298;DHT22;42208;6.376;-10.782;2022-09-13T01:03:40;26.40;99.90
56298;DHT22;42208;6.376;-10.782;2022-09-13T01:06:14;26.40;99.90
56298;DHT22;42208;6.376;-10.782;2022-09-13T01:08:46;26.40;99.90
56298;DHT22;42208;6.376;-10.782;2022-09-13T01:11:31;26.40;99.90
56298;DHT22;42208;6.376;-10.782;2022-09-13T01:14:02;26.30;99.90
56298;DHT22;42208;6.376;-10.782;2022-09-13T01:16:31;26.30;99.90
56298;DHT22;42208;6.376;-10.782;2022-09-13T01:19:03;26.30;99.90
56298;DHT22;42208;6.376;-10.782;2022-09-13T01:25:25;26.40;99.90
56298;DHT22;42208;6.376;-10.782;2022-09-13T01:30:58;26.30;99.90
56298;DHT22;42208;6.376;-10.782;2022-09-13T01:36:29;26.30;99.90
56298;DHT22;42208;6.376;-10.782;2022-09-13T01:39:04;26.20;99.90
56298;DHT22;42208;6.376;-10.782;2022-09-13T01:41:47;26.20;99.90
56298;DHT22;42208;6.376;-10.782;2022-09-13T01:44:26;26.20;99.90
56298;DHT22;42208;6.376;-10.782;2022-09-13T01:47:05;26.20;99.90
56298;DHT22;42208;6.376;-10.782;2022-09-13T01:54:56;26.20;99.90
56298;DHT22;42208;6.376;-10.782;2022-09-13T01:59:59;26.20;99.90
56298;DHT22;42208;6.376;-10.782;2022-09-13T02:08:18;26.10;99.90
56298;DHT22;42208;6.376;-10.782;2022-09-13T02:11:03;26.10;99.90
56298;DHT22;42208;6.376;-10.782;2022-09-13T02:13:43;26.10;99.90
56298;DHT22;42208;6.376;-10.782;2022-09-13T02:16:27;26.00;99.90
56298;DHT22;42208;6.376;-10.782;2022-09-13T02:19:09;26.00;99.90
56298;DHT22;42208;6.376;-10.782;2022-09-13T02:21:42;26.00;99.90
56298;DHT22;42208;6.376;-10.782;2022-09-13T02:24:30;26.10;99.90
56298;DHT22;42208;6.376;-10.782;2022-09-13T02:27:04;26.10;99.90
56298;DHT22;42208;6.376;-10.782;2022-09-13T02:29:38;26.10;99.90
56298;DHT22;42208;6.376;-10.782;2022-09-13T02:32:08;26.10;99.90
56298;DHT22;42208;6.376;-10.782;2022-09-13T02:34:47;26.20;99.90
56298;DHT22;42208;6.376;-10.782;2022-09-13T02:37:18;26.10;99.90
56298;DHT22;42208;6.376;-10.782;2022-09-13T02:39:50;26.00;99.90
56298;DHT22;42208;6.376;-10.782;2022-09-13T02:42:45;26.00;99.90
56298;DHT22;42208;6.376;-10.782;2022-09-13T02:45:11;26.00;99.90
56298;DHT22;42208;6.376;-10.782;2022-09-13T02:50:46;26.00;99.90
56298;DHT22;42208;6.376;-10.782;2022-09-13T02:53:36;26.00;99.90
56298;DHT22;42208;6.376;-10.782;2022-09-13T02:59:24;26.00;99.90
56298;DHT22;42208;6.376;-10.782;2022-09-13T03:02:21;26.00;99.90
56298;DHT22;42208;6.376;-10.782;2022-09-13T03:04:51;25.90;99.90
56298;DHT22;42208;6.376;-10.782;2022-09-13T03:07:19;25.90;99.90
56298;DHT22;42208;6.376;-10.782;2022-09-13T03:09:53;25.90;99.90
56298;DHT22;42208;6.376;-10.782;2022-09-13T03:19:19;25.90;99.90
56298;DHT22;42208;6.376;-10.782;2022-09-13T03:21:25;25.90;99.90
56298;DHT22;42208;6.376;-10.782;2022-09-13T03:30:03;25.70;99.90
56298;DHT22;42208;6.376;-10.782;2022-09-13T03:32:51;25.70;99.90
56298;DHT22;42208;6.376;-10.782;2022-09-13T03:35:33;25.70;99.90
56298;DHT22;42208;6.376;-10.782;2022-09-13T03:38:17;25.70;99.90
56298;DHT22;42208;6.376;-10.782;2022-09-13T03:40:54;25.70;99.90
56298;DHT22;42208;6.376;-10.782;2022-09-13T03:46:01;25.70;99.90
56298;DHT22;42208;6.376;-10.782;2022-09-13T03:48:30;25.70;99.90
56298;DHT22;42208;6.376;-10.782;2022-09-13T03:50:59;25.70;99.90
56298;DHT22;42208;6.376;-10.782;2022-09-13T03:53:29;25.70;99.90
56298;DHT22;42208;6.376;-10.782;2022-09-13T03:55:58;25.70;99.90
56298;DHT22;42208;6.376;-10.782;2022-09-13T03:58:26;25.70;99.90
56298;DHT22;42208;6.376;-10.782;2022-09-13T04:00:54;25.70;99.90
56298;DHT22;42208;6.376;-10.782;2022-09-13T04:03:23;25.70;99.90
56298;DHT22;42208;6.376;-10.782;2022-09-13T04:05:51;25.70;99.90
56298;DHT22;42208;6.376;-10.782;2022-09-13T04:08:19;25.70;99.90
56298;DHT22;42208;6.376;-10.782;2022-09-13T04:10:49;25.70;99.90
56298;DHT22;42208;6.376;-10.782;2022-09-13T04:13:18;25.70;99.90
56298;DHT22;42208;6.376;-10.782;2022-09-13T04:15:46;25.70;99.90
56298;DHT22;42208;6.376;-10.782;2022-09-13T04:18:14;25.70;99.90
56298;DHT22;42208;6.376;-10.782;2022-09-13T04:20:43;25.70;99.90
56298;DHT22;42208;6.376;-10.782;2022-09-13T04:23:11;25.70;99.90
56298;DHT22;42208;6.376;-10.782;2022-09-13T04:25:40;25.80;99.90
56298;DHT22;42208;6.376;-10.782;2022-09-13T04:28:08;25.80;99.90
56298;DHT22;42208;6.376;-10.782;2022-09-13T04:30:36;25.70;99.90
56298;DHT22;42208;6.376;-10.782;2022-09-13T04:33:09;25.80;99.90
56298;DHT22;42208;6.376;-10.782;2022-09-13T04:35:37;25.80;99.90
56298;DHT22;42208;6.376;-10.782;2022-09-13T04:38:06;25.80;99.90
56298;DHT22;42208;6.376;-10.782;2022-09-13T04:40:34;25.80;99.90
56298;DHT22;42208;6.376;-10.782;2022-09-13T04:43:03;25.80;99.90
56298;DHT22;42208;6.376;-10.782;2022-09-13T04:45:31;25.70;99.90
56298;DHT22;42208;6.376;-10.782;2022-09-13T04:48:00;25.60;99.90
56298;DHT22;42208;6.376;-10.782;2022-09-13T04:50:28;25.60;99.90
56298;DHT22;42208;6.376;-10.782;2022-09-13T04:52:57;25.50;99.90
56298;DHT22;42208;6.376;-10.782;2022-09-13T04:55:25;25.50;99.90
56298;DHT22;42208;6.376;-10.782;2022-09-13T04:57:53;25.40;99.90
56298;DHT22;42208;6.376;-10.782;2022-09-13T05:00:22;25.40;99.90
56298;DHT22;42208;6.376;-10.782;2022-09-13T05:02:54;25.40;99.90
56298;DHT22;42208;6.376;-10.782;2022-09-13T05:05:23;25.30;99.90
56298;DHT22;42208;6.376;-10.782;2022-09-13T05:07:51;25.30;99.90
56298;DHT22;42208;6.376;-10.782;2022-09-13T05:10:20;25.30;99.90
56298;DHT22;42208;6.376;-10.782;2022-09-13T05:12:48;25.30;99.90
56298;DHT22;42208;6.376;-10.782;2022-09-13T05:15:16;25.30;99.90
56298;DHT22;42208;6.376;-10.782;2022-09-13T05:17:44;25.20;99.90
56298;DHT22;42208;6.376;-10.782;2022-09-13T05:20:12;25.10;99.90
56298;DHT22;42208;6.376;-10.782;2022-09-13T05:22:41;25.10;99.90
56298;DHT22;42208;6.376;-10.782;2022-09-13T05:25:09;25.10;99.90
56298;DHT22;42208;6.376;-10.782;2022-09-13T05:27:37;25.10;99.90
56298;DHT22;42208;6.376;-10.782;2022-09-13T05:30:06;25.10;99.90
56298;DHT22;42208;6.376;-10.782;2022-09-13T05:32:34;25.10;99.90
56298;DHT22;42208;6.376;-10.782;2022-09-13T05:35:02;25.00;99.90
56298;DHT22;42208;6.376;-10.782;2022-09-13T05:37:30;25.00;99.90
56298;DHT22;42208;6.376;-10.782;2022-09-13T05:39:59;25.00;99.90
56298;DHT22;42208;6.376;-10.782;2022-09-13T05:42:38;25.00;99.90
56298;DHT22;42208;6.376;-10.782;2022-09-13T05:45:07;24.90;99.90
56298;DHT22;42208;6.376;-10.782;2022-09-13T05:47:35;24.80;99.90
56298;DHT22;42208;6.376;-10.782;2022-09-13T05:50:04;24.80;99.90
56298;DHT22;42208;6.376;-10.782;2022-09-13T05:52:37;24.90;99.90
56298;DHT22;42208;6.376;-10.782;2022-09-13T05:55:05;24.90;99.90
56298;DHT22;42208;6.376;-10.782;2022-09-13T05:57:34;24.80;99.90
56298;DHT22;42208;6.376;-10.782;2022-09-13T06:00:03;24.80;99.90
56298;DHT22;42208;6.376;-10.782;2022-09-13T06:02:38;24.80;99.90
56298;DHT22;42208;6.376;-10.782;2022-09-13T06:05:10;24.80;99.90
56298;DHT22;42208;6.376;-10.782;2022-09-13T06:07:41;24.80;99.90
56298;DHT22;42208;6.376;-10.782;2022-09-13T06:10:10;24.80;99.90
56298;DHT22;42208;6.376;-10.782;2022-09-13T06:12:38;24.80;99.90
56298;DHT22;42208;6.376;-10.782;2022-09-13T06:15:07;24.80;99.90
56298;DHT22;42208;6.376;-10.782;2022-09-13T06:17:35;24.80;99.90
56298;DHT22;42208;6.376;-10.782;2022-09-13T06:20:04;24.80;99.90
56298;DHT22;42208;6.376;-10.782;2022-09-13T06:22:32;24.80;99.90
56298;DHT22;42208;6.376;-10.782;2022-09-13T06:25:00;24.70;99.90
56298;DHT22;42208;6.376;-10.782;2022-09-13T06:27:29;24.80;99.90
56298;DHT22;42208;6.376;-10.782;2022-09-13T06:29:57;24.80;99.90
56298;DHT22;42208;6.376;-10.782;2022-09-13T06:32:25;24.80;99.90
56298;DHT22;42208;6.376;-10.782;2022-09-13T06:34:53;24.80;99.90
56298;DHT22;42208;6.376;-10.782;2022-09-13T06:37:21;24.70;99.90
56298;DHT22;42208;6.376;-10.782;2022-09-13T06:39:50;24.70;99.90
56298;DHT22;42208;6.376;-10.782;2022-09-13T06:42:18;24.70;99.90
56298;DHT22;42208;6.376;-10.782;2022-09-13T06:44:46;24.70;99.90
56298;DHT22;42208;6.376;-10.782;2022-09-13T06:47:14;24.70;99.90
56298;DHT22;42208;6.376;-10.782;2022-09-13T06:49:42;24.70;99.90
56298;DHT22;42208;6.376;-10.782;2022-09-13T06:52:11;24.80;99.90
56298;DHT22;42208;6.376;-10.782;2022-09-13T06:54:38;24.80;99.90
56298;DHT22;42208;6.376;-10.782;2022-09-13T06:57:07;24.90;99.90
56298;DHT22;42208;6.376;-10.782;2022-09-13T06:59:35;24.90;99.90
56298;DHT22;42208;6.376;-10.782;2022-09-13T07:02:03;25.00;99.90
56298;DHT22;42208;6.376;-10.782;2022-09-13T07:04:32;25.00;99.90
56298;DHT22;42208;6.376;-10.782;2022-09-13T07:07:00;25.00;99.90
56298;DHT22;42208;6.376;-10.782;2022-09-13T07:09:28;25.00;99.90
56298;DHT22;42208;6.376;-10.782;2022-09-13T07:11:56;25.00;99.90
56298;DHT22;42208;6.376;-10.782;2022-09-13T07:14:27;25.00;99.90
56298;DHT22;42208;6.376;-10.782;2022-09-13T07:16:55;25.10;99.90
56298;DHT22;42208;6.376;-10.782;2022-09-13T07:19:28;25.10;99.90
56298;DHT22;42208;6.376;-10.782;2022-09-13T07:21:56;25.10;99.90
56298;DHT22;42208;6.376;-10.782;2022-09-13T07:24:25;25.10;99.90
56298;DHT22;42208;6.376;-10.782;2022-09-13T07:26:53;25.20;99.90
56298;DHT22;42208;6.376;-10.782;2022-09-13T07:29:22;25.20;99.90
56298;DHT22;42208;6.376;-10.782;2022-09-13T07:31:52;25.20;99.90
56298;DHT22;42208;6.376;-10.782;2022-09-13T07:34:22;25.20;99.90
56298;DHT22;42208;6.376;-10.782;2022-09-13T07:36:51;25.30;99.90
56298;DHT22;42208;6.376;-10.782;2022-09-13T07:39:19;25.30;99.90
56298;DHT22;42208;6.376;-10.782;2022-09-13T07:41:50;25.30;99.90
56298;DHT22;42208;6.376;-10.782;2022-09-13T07:44:18;25.40;99.90
56298;DHT22;42208;6.376;-10.782;2022-09-13T07:46:46;25.40;99.90
56298;DHT22;42208;6.376;-10.782;2022-09-13T07:49:17;25.30;99.90
56298;DHT22;42208;6.376;-10.782;2022-09-13T07:51:45;25.40;99.90
56298;DHT22;42208;6.376;-10.782;2022-09-13T07:54:16;25.40;99.90
56298;DHT22;42208;6.376;-10.782;2022-09-13T07:56:45;25.40;99.90
56298;DHT22;42208;6.376;-10.782;2022-09-13T07:59:15;25.40;99.90
56298;DHT22;42208;6.376;-10.782;2022-09-13T08:01:48;25.40;99.90
56298;DHT22;42208;6.376;-10.782;2022-09-13T08:04:19;25.40;99.90
56298;DHT22;42208;6.376;-10.782;2022-09-13T08:06:47;25.40;99.90
56298;DHT22;42208;6.376;-10.782;2022-09-13T08:09:16;25.30;99.90
56298;DHT22;42208;6.376;-10.782;2022-09-13T08:11:49;25.30;99.90
56298;DHT22;42208;6.376;-10.782;2022-09-13T08:14:19;25.30;99.90
56298;DHT22;42208;6.376;-10.782;2022-09-13T08:16:47;25.40;99.90
56298;DHT22;42208;6.376;-10.782;2022-09-13T08:19:17;25.40;99.90
56298;DHT22;42208;6.376;-10.782;2022-09-13T08:21:46;25.40;99.90
56298;DHT22;42208;6.376;-10.782;2022-09-13T08:24:17;25.50;99.90
56298;DHT22;42208;6.376;-10.782;2022-09-13T08:26:46;25.60;99.90
56298;DHT22;42208;6.376;-10.782;2022-09-13T08:29:15;25.60;99.90
56298;DHT22;42208;6.376;-10.782;2022-09-13T08:31:44;25.70;99.90
56298;DHT22;42208;6.376;-10.782;2022-09-13T08:34:13;25.70;99.90
56298;DHT22;42208;6.376;-10.782;2022-09-13T08:36:42;25.80;99.90
56298;DHT22;42208;6.376;-10.782;2022-09-13T08:39:11;25.90;99.90
56298;DHT22;42208;6.376;-10.782;2022-09-13T08:44:29;26.00;99.90
56298;DHT22;42208;6.376;-10.782;2022-09-13T08:50:29;26.10;99.90
56298;DHT22;42208;6.376;-10.782;2022-09-13T08:53:18;26.20;99.90
56298;DHT22;42208;6.376;-10.782;2022-09-13T08:56:15;26.20;99.90
56298;DHT22;42208;6.376;-10.782;2022-09-13T09:01:35;26.30;99.90
56298;DHT22;42208;6.376;-10.782;2022-09-13T09:06:42;26.40;99.90
56298;DHT22;42208;6.376;-10.782;2022-09-13T09:09:18;26.50;99.90
56298;DHT22;42208;6.376;-10.782;2022-09-13T09:11:55;26.50;99.90
56298;DHT22;42208;6.376;-10.782;2022-09-13T09:14:38;26.60;99.90
56298;DHT22;42208;6.376;-10.782;2022-09-13T09:17:25;26.60;99.90
56298;DHT22;42208;6.376;-10.782;2022-09-13T09:20:41;26.70;99.90
56298;DHT22;42208;6.376;-10.782;2022-09-13T09:22:50;26.80;99.90
56298;DHT22;42208;6.376;-10.782;2022-09-13T09:25:22;26.80;99.90
56298;DHT22;42208;6.376;-10.782;2022-09-13T09:27:51;26.80;99.90
56298;DHT22;42208;6.376;-10.782;2022-09-13T09:30:20;26.90;99.90
56298;DHT22;42208;6.376;-10.782;2022-09-13T09:33:02;26.90;99.90
56298;DHT22;42208;6.376;-10.782;2022-09-13T09:38:37;26.80;99.90
56298;DHT22;42208;6.376;-10.782;2022-09-13T09:43:53;26.90;99.90
56298;DHT22;42208;6.376;-10.782;2022-09-13T09:46:28;27.00;99.90
56298;DHT22;42208;6.376;-10.782;2022-09-13T09:49:08;27.10;99.90
56298;DHT22;42208;6.376;-10.782;2022-09-13T09:51:39;27.20;99.90
56298;DHT22;42208;6.376;-10.782;2022-09-13T09:54:09;27.30;99.90
56298;DHT22;42208;6.376;-10.782;2022-09-13T09:56:52;27.30;99.90
56298;DHT22;42208;6.376;-10.782;2022-09-13T09:59:31;27.10;99.90
56298;DHT22;42208;6.376;-10.782;2022-09-13T10:02:01;27.10;99.90
56298;DHT22;42208;6.376;-10.782;2022-09-13T10:04:30;27.20;99.90
56298;DHT22;42208;6.376;-10.782;2022-09-13T10:07:26;27.30;99.90
56298;DHT22;42208;6.376;-10.782;2022-09-13T10:09:59;27.40;99.90
56298;DHT22;42208;6.376;-10.782;2022-09-13T10:12:34;27.40;99.90
56298;DHT22;42208;6.376;-10.782;2022-09-13T10:15:18;27.50;99.90
56298;DHT22;42208;6.376;-10.782;2022-09-13T10:18:03;27.70;99.90
56298;DHT22;42208;6.376;-10.782;2022-09-13T10:23:32;27.60;99.90
56298;DHT22;42208;6.376;-10.782;2022-09-13T10:29:04;27.70;99.90
56298;DHT22;42208;6.376;-10.782;2022-09-13T10:31:40;27.70;99.90
56298;DHT22;42208;6.376;-10.782;2022-09-13T10:34:17;27.60;99.90
56298;DHT22;42208;6.376;-10.782;2022-09-13T10:40:30;27.60;99.90
56298;DHT22;42208;6.376;-10.782;2022-09-13T10:43:02;27.70;99.90
56298;DHT22;42208;6.376;-10.782;2022-09-13T10:45:31;27.60;99.90
56298;DHT22;42208;6.376;-10.782;2022-09-13T10:48:08;27.50;99.90
56298;DHT22;42208;6.376;-10.782;2022-09-13T10:50:37;27.60;99.90
56298;DHT22;42208;6.376;-10.782;2022-09-13T10:53:36;27.70;99.90
56298;DHT22;42208;6.376;-10.782;2022-09-13T10:56:17;27.60;99.90
56298;DHT22;42208;6.376;-10.782;2022-09-13T10:58:46;27.60;99.90
56298;DHT22;42208;6.376;-10.782;2022-09-13T11:01:38;27.80;99.90
56298;DHT22;42208;6.376;-10.782;2022-09-13T11:10:24;28.10;99.90
56298;DHT22;42208;6.376;-10.782;2022-09-13T11:15:56;27.90;99.90
56298;DHT22;42208;6.376;-10.782;2022-09-13T11:18:53;28.00;99.90
56298;DHT22;42208;6.376;-10.782;2022-09-13T11:24:56;28.00;99.90
56298;DHT22;42208;6.376;-10.782;2022-09-13T11:27:40;28.10;99.90
56298;DHT22;42208;6.376;-10.782;2022-09-13T11:30:18;28.00;99.90
56298;DHT22;42208;6.376;-10.782;2022-09-13T11:44:24;27.90;99.90
56298;DHT22;42208;6.376;-10.782;2022-09-13T11:50:15;28.20;99.90
56298;DHT22;42208;6.376;-10.782;2022-09-13T11:55:51;28.30;99.90
56298;DHT22;42208;6.376;-10.782;2022-09-13T12:01:00;28.20;99.90
56298;DHT22;42208;6.376;-10.782;2022-09-13T12:07:03;28.30;99.90
56298;DHT22;42208;6.376;-10.782;2022-09-13T12:09:52;28.20;99.90
56298;DHT22;42208;6.376;-10.782;2022-09-13T12:12:29;28.50;99.90
56298;DHT22;42208;6.376;-10.782;2022-09-13T12:15:17;28.60;99.90
56298;DHT22;42208;6.376;-10.782;2022-09-13T12:17:52;28.60;99.90
56298;DHT22;42208;6.376;-10.782;2022-09-13T12:20:34;28.40;99.90
56298;DHT22;42208;6.376;-10.782;2022-09-13T12:23:10;28.30;99.90
56298;DHT22;42208;6.376;-10.782;2022-09-13T12:26:25;28.40;99.90
56298;DHT22;42208;6.376;-10.782;2022-09-13T12:28:55;28.30;99.90
56298;DHT22;42208;6.376;-10.782;2022-09-13T12:31:27;28.40;99.90
56298;DHT22;42208;6.376;-10.782;2022-09-13T12:33:56;28.40;99.90
56298;DHT22;42208;6.376;-10.782;2022-09-13T12:42:49;28.40;99.90
56298;DHT22;42208;6.376;-10.782;2022-09-13T12:46:16;28.40;99.90
56298;DHT22;42208;6.376;-10.782;2022-09-13T12:51:41;28.70;99.90
56298;DHT22;42208;6.376;-10.782;2022-09-13T12:57:25;28.70;99.90
56298;DHT22;42208;6.376;-10.782;2022-09-13T13:08:03;28.90;99.90
56298;DHT22;42208;6.376;-10.782;2022-09-13T13:10:33;29.10;99.90
56298;DHT22;42208;6.376;-10.782;2022-09-13T13:13:22;29.20;99.90
56298;DHT22;42208;6.376;-10.782;2022-09-13T13:15:55;29.20;99.90
56298;DHT22;42208;6.376;-10.782;2022-09-13T13:18:42;29.30;99.90
56298;DHT22;42208;6.376;-10.782;2022-09-13T13:26:48;29.40;99.90
56298;DHT22;42208;6.376;-10.782;2022-09-13T13:34:49;28.70;99.90
56298;DHT22;42208;6.376;-10.782;2022-09-13T13:39:47;28.70;99.90
56298;DHT22;42208;6.376;-10.782;2022-09-13T13:42:28;28.80;99.90
56298;DHT22;42208;6.376;-10.782;2022-09-13T13:50:15;28.80;99.90
56298;DHT22;42208;6.376;-10.782;2022-09-13T14:00:53;29.00;99.90
56298;DHT22;42208;6.376;-10.782;2022-09-13T14:06:14;28.80;99.90
56298;DHT22;42208;6.376;-10.782;2022-09-13T14:21:01;28.80;99.90
56298;DHT22;42208;6.376;-10.782;2022-09-13T14:23:30;29.30;99.90
56298;DHT22;42208;6.376;-10.782;2022-09-13T14:26:00;29.10;99.90
56298;DHT22;42208;6.376;-10.782;2022-09-13T14:28:28;29.20;99.90
56298;DHT22;42208;6.376;-10.782;2022-09-13T14:30:59;29.40;99.90
56298;DHT22;42208;6.376;-10.782;2022-09-13T14:33:33;29.50;99.90
56298;DHT22;42208;6.376;-10.782;2022-09-13T14:36:07;29.60;99.90
56298;DHT22;42208;6.376;-10.782;2022-09-13T14:38:50;29.30;99.90
56298;DHT22;42208;6.376;-10.782;2022-09-13T14:41:30;29.30;99.90
56298;DHT22;42208;6.376;-10.782;2022-09-13T14:44:18;29.00;99.90
56298;DHT22;42208;6.376;-10.782;2022-09-13T14:47:11;28.90;99.90
56298;DHT22;42208;6.376;-10.782;2022-09-13T14:49:45;28.90;99.90
56298;DHT22;42208;6.376;-10.782;2022-09-13T14:52:25;28.90;99.90
56298;DHT22;42208;6.376;-10.782;2022-09-13T14:54:57;28.90;99.90
56298;DHT22;42208;6.376;-10.782;2022-09-13T14:57:30;29.10;99.90
56298;DHT22;42208;6.376;-10.782;2022-09-13T15:00:20;29.40;99.90
56298;DHT22;42208;6.376;-10.782;2022-09-13T15:02:56;29.90;99.90
56298;DHT22;42208;6.376;-10.782;2022-09-13T15:05:28;30.10;99.90
56298;DHT22;42208;6.376;-10.782;2022-09-13T15:07:58;30.20;99.90
56298;DHT22;42208;6.376;-10.782;2022-09-13T15:10:30;29.90;99.90
56298;DHT22;42208;6.376;-10.782;2022-09-13T15:15:42;29.90;99.90
56298;DHT22;42208;6.376;-10.782;2022-09-13T15:21:02;29.50;99.90
56298;DHT22;42208;6.376;-10.782;2022-09-13T15:23:39;29.40;99.90
56298;DHT22;42208;6.376;-10.782;2022-09-13T15:26:18;29.40;99.90
56298;DHT22;42208;6.376;-10.782;2022-09-13T15:28:51;29.40;99.90
56298;DHT22;42208;6.376;-10.782;2022-09-13T15:34:31;29.60;99.90
56298;DHT22;42208;6.376;-10.782;2022-09-13T15:37:11;29.70;99.90
56298;DHT22;42208;6.376;-10.782;2022-09-13T15:40:10;29.90;99.90
56298;DHT22;42208;6.376;-10.782;2022-09-13T15:42:43;30.10;99.90
56298;DHT22;42208;6.376;-10.782;2022-09-13T15:45:11;30.20;99.90
56298;DHT22;42208;6.376;-10.782;2022-09-13T15:47:40;30.20;99.90
56298;DHT22;42208;6.376;-10.782;2022-09-13T15:50:23;29.80;99.90
56298;DHT22;42208;6.376;-10.782;2022-09-13T15:52:52;29.90;99.90
56298;DHT22;42208;6.376;-10.782;2022-09-13T15:55:21;29.90;99.90
56298;DHT22;42208;6.376;-10.782;2022-09-13T15:57:49;29.80;99.90
56298;DHT22;42208;6.376;-10.782;2022-09-13T16:00:23;29.70;99.90
56298;DHT22;42208;6.376;-10.782;2022-09-13T16:02:52;29.70;99.90
56298;DHT22;42208;6.376;-10.782;2022-09-13T16:05:21;29.70;99.90
56298;DHT22;42208;6.376;-10.782;2022-09-13T16:07:49;29.40;99.90
56298;DHT22;42208;6.376;-10.782;2022-09-13T16:10:22;29.30;99.90
56298;DHT22;42208;6.376;-10.782;2022-09-13T16:12:50;29.20;99.90
56298;DHT22;42208;6.376;-10.782;2022-09-13T16:15:18;29.50;99.90
56298;DHT22;42208;6.376;-10.782;2022-09-13T16:17:47;29.70;99.90
56298;DHT22;42208;6.376;-10.782;2022-09-13T16:20:15;29.50;99.90
56298;DHT22;42208;6.376;-10.782;2022-09-13T16:22:44;29.40;99.90
56298;DHT22;42208;6.376;-10.782;2022-09-13T16:25:13;29.10;99.90
56298;DHT22;42208;6.376;-10.782;2022-09-13T16:27:42;28.90;99.90
56298;DHT22;42208;6.376;-10.782;2022-09-13T16:30:15;28.70;99.90
56298;DHT22;42208;6.376;-10.782;2022-09-13T16:32:45;28.50;99.90
56298;DHT22;42208;6.376;-10.782;2022-09-13T16:35:13;29.10;99.90
56298;DHT22;42208;6.376;-10.782;2022-09-13T16:37:42;30.20;99.90
56298;DHT22;42208;6.376;-10.782;2022-09-13T16:40:10;30.20;99.90
56298;DHT22;42208;6.376;-10.782;2022-09-13T16:42:39;30.30;99.90
56298;DHT22;42208;6.376;-10.782;2022-09-13T16:45:08;30.80;99.90
56298;DHT22;42208;6.376;-10.782;2022-09-13T16:47:37;31.30;99.90
56298;DHT22;42208;6.376;-10.782;2022-09-13T16:50:06;32.20;99.90
56298;DHT22;42208;6.376;-10.782;2022-09-13T16:52:35;32.60;99.90
56298;DHT22;42208;6.376;-10.782;2022-09-13T16:55:03;33.20;99.90
56298;DHT22;42208;6.376;-10.782;2022-09-13T16:57:32;32.80;99.90
56298;DHT22;42208;6.376;-10.782;2022-09-13T17:00:01;33.60;99.90
56298;DHT22;42208;6.376;-10.782;2022-09-13T17:02:29;33.60;99.90
56298;DHT22;42208;6.376;-10.782;2022-09-13T17:04:58;33.20;99.90
56298;DHT22;42208;6.376;-10.782;2022-09-13T17:07:26;32.70;99.90
56298;DHT22;42208;6.376;-10.782;2022-09-13T17:09:54;32.50;99.90
56298;DHT22;42208;6.376;-10.782;2022-09-13T17:12:23;31.90;99.90
56298;DHT22;42208;6.376;-10.782;2022-09-13T17:14:51;31.60;99.90
56298;DHT22;42208;6.376;-10.782;2022-09-13T17:17:19;31.60;99.90
56298;DHT22;42208;6.376;-10.782;2022-09-13T17:19:47;31.70;99.90
56298;DHT22;42208;6.376;-10.782;2022-09-13T17:22:16;31.80;99.90
56298;DHT22;42208;6.376;-10.782;2022-09-13T17:24:44;31.90;99.90
56298;DHT22;42208;6.376;-10.782;2022-09-13T17:27:12;31.20;99.90
56298;DHT22;42208;6.376;-10.782;2022-09-13T17:29:41;30.90;99.90
56298;DHT22;42208;6.376;-10.782;2022-09-13T17:32:09;31.10;99.90
56298;DHT22;42208;6.376;-10.782;2022-09-13T17:34:37;31.00;99.90
56298;DHT22;42208;6.376;-10.782;2022-09-13T17:37:05;31.00;99.90
56298;DHT22;42208;6.376;-10.782;2022-09-13T17:39:34;30.90;99.90
56298;DHT22;42208;6.376;-10.782;2022-09-13T17:42:02;30.50;99.90
56298;DHT22;42208;6.376;-10.782;2022-09-13T17:44:31;30.30;99.90
56298;DHT22;42208;6.376;-10.782;2022-09-13T17:46:59;29.80;99.90
56298;DHT22;42208;6.376;-10.782;2022-09-13T17:49:27;29.60;99.90
56298;DHT22;42208;6.376;-10.782;2022-09-13T17:51:55;29.50;99.90
56298;DHT22;42208;6.376;-10.782;2022-09-13T17:54:23;29.30;99.90
56298;DHT22;42208;6.376;-10.782;2022-09-13T17:56:52;29.30;99.90
56298;DHT22;42208;6.376;-10.782;2022-09-13T17:59:20;29.40;99.90
56298;DHT22;42208;6.376;-10.782;2022-09-13T18:01:51;29.50;99.90
56298;DHT22;42208;6.376;-10.782;2022-09-13T18:04:21;29.10;99.90
56298;DHT22;42208;6.376;-10.782;2022-09-13T18:06:51;28.80;99.90
56298;DHT22;42208;6.376;-10.782;2022-09-13T18:09:19;28.60;99.90
56298;DHT22;42208;6.376;-10.782;2022-09-13T18:11:48;28.60;99.90
56298;DHT22;42208;6.376;-10.782;2022-09-13T18:14:17;28.50;99.90
56298;DHT22;42208;6.376;-10.782;2022-09-13T18:16:46;28.40;99.90
56298;DHT22;42208;6.376;-10.782;2022-09-13T18:19:16;28.30;99.90
56298;DHT22;42208;6.376;-10.782;2022-09-13T18:22:00;28.20;99.90
56298;DHT22;42208;6.376;-10.782;2022-09-13T18:24:29;28.10;99.90
56298;DHT22;42208;6.376;-10.782;2022-09-13T18:26:57;28.00;99.90
56298;DHT22;42208;6.376;-10.782;2022-09-13T18:29:25;27.90;99.90
56298;DHT22;42208;6.376;-10.782;2022-09-13T18:31:54;27.80;99.90
56298;DHT22;42208;6.376;-10.782;2022-09-13T18:34:22;27.80;99.90
56298;DHT22;42208;6.376;-10.782;2022-09-13T18:36:54;27.70;99.90
56298;DHT22;42208;6.376;-10.782;2022-09-13T18:39:22;27.60;99.90
56298;DHT22;42208;6.376;-10.782;2022-09-13T18:41:51;27.60;99.90
56298;DHT22;42208;6.376;-10.782;2022-09-13T18:44:19;27.60;99.90
56298;DHT22;42208;6.376;-10.782;2022-09-13T18:46:47;27.60;99.90
56298;DHT22;42208;6.376;-10.782;2022-09-13T18:49:15;27.50;99.90
56298;DHT22;42208;6.376;-10.782;2022-09-13T18:51:44;27.40;99.90